Extreme weather reports worldwide

Snow

Station
 
Location
 
Name
 
Wind
Knots
Gust
Knots
Vis
SM
Temp/Dew
C
Baro
inHg
METAR
 
KMWN 67 78 0.06 -16/-16 KMWN 251855Z 28067G78KT 1/16SM -SHSN FZFG BLSN VV001 M16/M16 RMK SNE25SHSNB25 VRY LGT ICG
YEK CYEK Arviat, CA Arviat Airport 30 36 0 -31/-35 29.58 CYEK 251900Z 32030G36KT 0SM +BLSN VV003 M31/M35 A2958 RMK BLSN8 SLP021
YHZ CYHZ Halifax, CA Halifax / Stanfield International Airport 21 36 6 -1/-2 29.52 CYHZ 251938Z 30021G36KT 6SM -SHSN FEW013 BKN019 M01/M02 A2952 RMK CF2CU5 SLP003
PHO PAPO Point Hope, US Point Hope Airport 25 33 0.75 -27/-31 29.99 PAPO 251939Z AUTO 02025G33KT 3/4SM -SN CLR M27/M31 A2999 RMK AO2 PK WND 02034/1924 P0000 FZRANO
YGR CYGR ÃŽles-de-la-Madeleine, CA ÃŽles-de-la-Madeleine Airport 27 32 1.75 -2/-3 29.29 CYGR 251900Z 34027G32KT 1 3/4SM -SN BKN005 OVC030 M02/M03 A2929 RMK SN2ST3SC3 SLP920

Station
 
Location
 
Name
 
Wind
Knots
Gust
Knots
Vis
SM
Temp/Dew
C
Baro
inHg
METAR
 
CYAW Halifax, CA Halifax / CFB Shearwater Heliport 25 31 10 2/-3 29.52 CYAW 251923Z 28025G31KT 10SM -SHSN BKN020 02/M03 A2952 RMK SC7 DA-937FT PCPN VRY LGT SLP000
YYQ CYYQ Churchill, CA Churchill Airport 25 30 0.13 -18/-21 29.57 CYYQ 251940Z 35025G30KT 1/8SM R33/P6000FT/N -SN +BLSN OVC032 M18/M21 A2957 RMK BLSN4SC4 SLP018
YYT CYYT St. John's, CA St. John's International Airport 23 30 0.25 -1/-1 29.36 CYYT 251929Z 17023G30KT 1/4SM R29/2400V2800FT/N R16/2800V3500FT/N +SN VV003 M01/M01 A2936 RMK SN8 PRESFR SLP951
LGD KLGD La Grande, US La Grande/Union County Airport 17 30 9 -1/-4 30.16 KLGD 251941Z AUTO 18017G30KT 9SM -SN FEW027 OVC036 M01/M04 A3016 RMK AO2 PK WND 19030/1933 FZRANO PNO $
YXJ CYXJ Fort St.John, CA Fort St John Airport 21 29 3 -8/-12 29.35 CYXJ 251920Z 35021G29KT 3SM R30/4000VP6000FT/U -SN OVC015 M08/M12 A2935 RMK SC8 PRESRR SLP979
YPS CYPD Port Hawkesbury, CA Port Hawkesbury Airport 18 29 1.25 0/-1 29.28 CYPD 251921Z AUTO 28018G29KT 1 1/4SM -SN OVC004 M00/M01 A2928 RMK PRESRR SLP923
YYG CYYG Charlottetown, CA Charlottetown Airport 20 28 1 -3/-4 29.43 CYYG 251900Z 30020G28KT 1SM R03/2800V3500FT/U -SHSN DRSN VV008 M03/M04 A2943 RMK SN8 CVCTV CLD EMBD PRESRR SLP969
YQM CYQM Moncton, CA Greater Moncton Roméo LeBlanc International Airport 16 28 12 -3/-7 29.55 CYQM 251939Z 28016G28KT 12SM -SN DRSN BKN027 M03/M07 A2955 RMK NS7 SLP013
YTQ CYTQ Tasiujaq, CA Tasiujaq Airport 22 27 5 -24/-28 29.67 CYTQ 251900Z 29022G27KT 5SM IC DRSN FEW035 BKN230 M24/M28 A2967 RMK SC2CS5 SLP054
YWB CYKG Kangiqsujuaq, CA Kangiqsujuaq (Wakeham Bay) Airport 18 26 15 -24/-30 29.55 CYKG 251900Z 36018G26KT 15SM DRSN FEW070 BKN110 M24/M30 A2955 RMK AC1AS5 SLP031
YPY CYPY Fort Chipewyan, CA Fort Chipewyan Airport 20 25 1.5 -18/-22 29.62 CYPY 251926Z AUTO 05020G25KT 1 1/2SM -SN OVC047 M18/M22 A2962 RMK VIS VRB 1-2 1/2 SLP050
YUL CYUL Montréal, CA Montreal / Pierre Elliott Trudeau International Airport 20 25 30 -5/-11 30.09 CYUL 251900Z 26020G25KT 30SM DRSN FEW040 FEW240 M05/M11 A3009 RMK SC1CI1 CI TR SLP193
YBG CYBG Bagotville, CA CFB Bagotville 19 24 20 -14/-20 29.95 CYBG 251900Z 30019G24KT 20SM DRSN SCT035 M14/M20 A2995 RMK SC3 SLP156
CWSW 17 24 7 -4/-7 29.77 CWSW 251900Z 15017G24KT 7SM -SN FEW017 OVC031 M04/M07 A2977 RMK SF1NS7 PRESFR SLP127
YNE CYNE Norway House, CA Norway House Airport 15 24 9 -5/-10 29.63 CYNE 251934Z AUTO 21015G24KT 9SM -SN CLR M05/M10 A2963 RMK SLP052
YSC CYSC Sherbrooke, CA Sherbrooke Airport 14 24 6 -5/-10 29.94 CYSC 251940Z AUTO 30014G24KT 6SM -SN FEW018 SCT029 BKN039 M05/M10 A2994 RMK SLP157
GLR KGLR Gaylord, US Gaylord Regional Airport 10 23 4 0/-5 30.12 KGLR 251859Z AUTO 27010G23KT 4SM -SN SCT010 BKN029 OVC050 00/M05 A3012 RMK AO2 P0000 T00001050
K0CO 17 22 0.25 -15/-23 29.97 K0CO 251935Z AUTO 33017G22KT M1/4SM +SN OVC001 M15/M23 A2997 RMK AO2
YCB CYCB Cambridge Bay, CA Cambridge Bay Airport 15 22 0.5 -33/-37 29.52 CYCB 251910Z 32015G22KT 1/2SM -SN BLSN SCT003 BKN033 M33/M37 A2952 RMK BLSN1SF2SC4 VIS VRB 1/2-1 SLP005
YKL CYKL Schefferville, CA Schefferville Airport 15 21 7 -18/-22 29.49 CYKL 251934Z AUTO 31015G21KT 7SM -SN OVC033 M18/M22 A2949 RMK SLP042
HIE KHIE Whitefield, US Mount Washington Regional Airport 9 21 7 -3/-9 29.94 KHIE 251852Z AUTO 28009G21KT 7SM -SN BKN038 OVC048 M03/M09 A2994 RMK AO2 PK WND 29031/1803 SNB00E09B32 SLP151 P0000 T10331094
YCO CYCO Kugluktuk, CA Kugluktuk Airport 15 20 15 -34/-40 29.94 CYCO 251900Z 26015G20KT 15SM DRSN SCT063 BKN071 M34/M40 A2994 RMK SC3AS4 SLP146
SLK KSLK Saranac Lake, US Adirondack Regional Airport 7 20 8 -4/-10 30.00 KSLK 251931Z AUTO 27007G20KT 210V310 8SM -SN BKN027 BKN038 M04/M10 A3000 RMK AO2 SNB23 P0000 T10441100
YHD CYHD Dryden, CA Dryden Regional Airport 14 19 9 -5/-9 29.98 CYHD 251900Z AUTO 25014G19KT 9SM -SN BKN020 OVC027 M05/M09 A2998 RMK SLP187
YOJ CYOJ High Level, CA High Level Airport 13 18 1 -16/-18 29.54 CYOJ 251905Z 36013G18KT 1SM -SN DRSN VV016 M16/M18 A2954 RMK SN8 SLP037
YVP CYVP Kuujjuaq, CA Kuujjuaq Airport 13 18 6 -22/-28 29.69 CYVP 251900Z 27013G18KT 6SM -SN DRSN BKN040 OVC080 M22/M28 A2969 RMK SC5AS3 SLP060
YPL CYPL Pickle Lake, CA Pickle Lake Airport 11 18 9 -9/-13 29.93 CYPL 251900Z AUTO 21011G18KT 9SM -SN FEW022 OVC055 M09/M13 A2993 RMK SLP173
KSMP 7 18 0.25 -1/-2 29.94 KSMP 251856Z AUTO 25007G18KT 220V300 1/4SM SN FZFG VV002 M02/M03 A2994 RMK AO2 SLP167 P0000 T10171028
YDB CYDB Burwash, CA Burwash Airport 11 17 1.75 -9/-11 29.40 CYDB 251940Z AUTO 31011G17KT 1 3/4SM -SN OVC020 M09/M11 A2940 RMK SLP013
YHY CYHY Hay River, CA Hay River / Merlyn Carter Airport 10 17 2 -29/-34 29.91 CYHY 251900Z 06010G17KT 010V090 2SM -SN DRSN BKN007 BKN095 M29/M34 A2991 RMK ST5AC2 SLP154
PAZK 10 17 4 -8/-9 29.48 PAZK 251856Z AUTO 22010G17KT 4SM -SN BR OVC004 M08/M09 A2948 RMK AO2 SLP049 P0000 T10831094 FZRANO
TLJ PATL Takotna, US Tatalina LRRS Airport 12 16 10 -4/-5 29.72 PATL 251912Z AUTO 04012G16KT 010V080 10SM -SN BKN011 BKN035 M04/M05 A2972 RMK AO2 SLP085
YXL CYXL Sioux Lookout, CA Sioux Lookout Airport 10 16 15 -4/-9 29.98 CYXL 251900Z 21010G16KT 15SM -SN SCT021 BKN041 M04/M09 A2998 RMK SC3SC3 SLP183
YSF CYSF Stony Rapids, CA Stony Rapids Airport 10 15 9 -25/-31 29.68 CYSF 251925Z AUTO 08010G15KT 9SM -SN CLR M25/M31 A2968 RMK SLP086
YQH CYQH Watson Lake, CA Watson Lake Airport 9 15 6 -9/-12 29.38 CYQH 251900Z 12009G15KT 6SM -SN SCT018 OVC029 M09/M12 A2938 RMK SC4SC4 SLP995
YBK CYBK Baker Lake, CA Baker Lake Airport 35 0.13 -38/-42 29.53 CYBK 251900Z 32035KT 1/8SM -SN +BLSN BKN003 M38/M42 A2953 RMK BLSN2ST4 SLP004
YRT CYRT Rankin Inlet, CA Rankin Inlet Airport 27 0 -32/-36 29.36 CYRT 251900Z 31027KT 0SM -SN BLSN VV005 M32/M36 A2936 RMK BLSN8 PRESRR SLP948
VAW ENSS Vardø, NO Vardø Airport, Svartnes 25 6.21 -3/-4 29.17 ENSS 251850Z 23025KT 9999 VCSH DRSN SCT020 BKN051 M03/M04 Q0988 RMK WIND 500FT 23036KT
YQC CYHA Quaqtaq, CA Quaqtaq Airport 21 15 -22/-25 29.59 CYHA 251900Z 32021KT 15SM DRSN FEW033 FEW100 OVC300 M22/M25 A2959 RMK SC1AC1CS7 AC TR SLP028
YFB CYFB Iqaluit, CA Iqaluit Airport 21 1.5 -25/-29 29.53 CYFB 251900Z 32021KT 1 1/2SM IC BLSN BKN240 M25/M29 A2953 RMK BLSN5CI1 VIS N 3/4 SLP005
URA UARR Uralsk, KZ Uralsk Airport 19 0.68 -15/-17 30.27 UARR 251900Z 17010MPS 1100 R22/2000 SN BLSN BKN021 M15/M17 Q1025 R22/451045 NOSIG RMK QFE765/1020
BJF ENBS BÃ¥tsfjord, NO BÃ¥tsfjord Airport 19 6.21 -3/-5 29.14 ENBS 251920Z 18019KT 9999 -DZ DRSN FEW021 SCT031 BKN042 M03/M05 Q0987
VOG URWW Volgograd, RU Volgograd International Airport 16 2.17 -8/-10 30.12 URWW 251930Z 25008MPS 3500 -SHSN BLSN BKN020CB M08/M10 Q1020 RESN REBLSN R24/420050 NOSIG
PWQ UASP Pavlodar, KZ Pavlodar Airport 16 6.21 -25/-28 30.27 UASP 251930Z 26008MPS 9999 -SN DRSN BKN026 M25/M28 Q1025 R21/450355 NOSIG RMK QFE758/1010
KGF UAKK Karaganda, KZ Sary-Arka Airport 16 2.49 -25/-29 30.32 UAKK 251930Z 24008MPS 4000 BLSN SCT007 BKN017 M25/M29 Q1027 R23/820555 NOSIG RMK QFE723/0964